createdAt,value
2022-10-16T00:01:55.224Z,2.25
2022-10-16T00:04:24.631Z,2.25
2022-10-16T00:06:51.556Z,2.20
2022-10-16T00:09:18.556Z,2.72
2022-10-16T00:11:45.597Z,3.38
2022-10-16T00:14:15.537Z,2.63
2022-10-16T00:16:42.949Z,2.20
2022-10-16T00:19:12.106Z,2.38
2022-10-16T00:21:39.688Z,2.35
2022-10-16T00:24:09.781Z,1.98
2022-10-16T00:26:38.163Z,3.67
2022-10-16T00:29:06.035Z,3.08
2022-10-16T00:31:33.607Z,3.38
2022-10-16T00:34:01.535Z,3.97
2022-10-16T00:36:28.941Z,3.05
2022-10-16T00:38:58.739Z,3.65
2022-10-16T00:41:26.473Z,3.50
2022-10-16T00:44:00.429Z,2.97
2022-10-16T00:46:29.271Z,2.88
2022-10-16T00:49:02.253Z,2.95
2022-10-16T00:54:01.779Z,2.85
2022-10-16T00:56:28.736Z,3.05
2022-10-16T00:58:55.618Z,2.47
2022-10-16T01:01:22.609Z,3.00
2022-10-16T01:03:49.498Z,2.63
2022-10-16T01:06:27.328Z,3.03
2022-10-16T01:09:25.163Z,2.03
2022-10-16T01:12:21.639Z,1.73
2022-10-16T01:14:58.294Z,1.65
2022-10-16T01:18:06.270Z,1.98
2022-10-16T01:20:35.440Z,1.88
2022-10-16T01:23:33.054Z,1.63
2022-10-16T01:26:24.459Z,1.75
2022-10-16T01:29:08.787Z,1.50
2022-10-16T01:31:38.934Z,1.42
2022-10-16T01:34:10.743Z,1.50
2022-10-16T01:36:41.416Z,2.30
2022-10-16T01:39:10.725Z,1.75
2022-10-16T01:41:40.775Z,1.67
2022-10-16T01:44:26.863Z,1.83
2022-10-16T01:46:54.502Z,1.83
2022-10-16T01:49:23.346Z,1.58
2022-10-16T01:51:54.474Z,1.67
2022-10-16T01:54:21.936Z,1.60
2022-10-16T01:56:50.159Z,2.00
2022-10-16T01:59:20.078Z,2.90
2022-10-16T02:01:50.502Z,3.15
2022-10-16T02:04:22.814Z,3.00
2022-10-16T02:06:49.727Z,2.78
2022-10-16T02:09:17.894Z,2.58
2022-10-16T02:11:45.424Z,2.70
2022-10-16T02:14:12.320Z,2.38
2022-10-16T02:16:42.051Z,1.67
2022-10-16T02:19:09.174Z,2.45
2022-10-16T02:21:39.695Z,1.70
2022-10-16T02:24:19.428Z,1.65
2022-10-16T02:27:18.464Z,2.00
2022-10-16T02:29:51.245Z,2.17
2022-10-16T02:32:22.127Z,2.78
2022-10-16T02:34:50.679Z,2.88
2022-10-16T02:37:18.272Z,2.50
2022-10-16T02:39:45.152Z,2.28
2022-10-16T02:42:14.575Z,2.83
2022-10-16T02:44:41.455Z,2.45
2022-10-16T02:47:08.326Z,2.35
2022-10-16T02:49:35.202Z,2.13
2022-10-16T02:52:02.070Z,2.05
2022-10-16T02:54:28.909Z,2.47
2022-10-16T02:56:55.751Z,1.60
2022-10-16T02:59:22.566Z,1.42
2022-10-16T03:01:49.499Z,2.10
2022-10-16T03:04:16.407Z,2.22
2022-10-16T03:06:43.223Z,1.75
2022-10-16T03:09:10.406Z,1.80
2022-10-16T03:11:37.300Z,1.60
2022-10-16T03:14:04.153Z,1.58
2022-10-16T03:16:30.953Z,1.73
2022-10-16T03:18:57.834Z,1.90
2022-10-16T03:21:24.697Z,1.95
2022-10-16T03:23:51.628Z,1.40
2022-10-16T03:26:18.470Z,1.30
2022-10-16T03:28:45.409Z,1.25
2022-10-16T03:31:12.317Z,1.30
2022-10-16T03:33:39.201Z,1.20
2022-10-16T03:36:06.202Z,2.58
2022-10-16T03:38:33.097Z,1.45
2022-10-16T03:40:59.889Z,1.50
2022-10-16T03:43:26.740Z,1.52
2022-10-16T03:45:53.563Z,1.50
2022-10-16T03:48:20.677Z,1.65
2022-10-16T03:50:49.884Z,1.88
2022-10-16T03:53:16.800Z,1.10
2022-10-16T03:55:44.174Z,1.40
2022-10-16T03:58:11.484Z,1.10
2022-10-16T04:00:42.587Z,1.40
2022-10-16T04:03:09.654Z,1.05
2022-10-16T04:05:36.467Z,1.30
2022-10-16T04:08:03.285Z,1.48
2022-10-16T04:10:30.184Z,1.13
2022-10-16T04:12:57.136Z,1.00
2022-10-16T04:15:24.687Z,1.23
2022-10-16T04:17:52.288Z,1.83
2022-10-16T04:20:19.489Z,1.30
2022-10-16T04:22:46.376Z,1.23
2022-10-16T04:25:13.298Z,1.85
2022-10-16T04:27:42.290Z,1.60
2022-10-16T04:30:12.383Z,1.38
2022-10-16T04:32:39.183Z,1.13
2022-10-16T04:35:06.628Z,1.75
2022-10-16T04:37:33.443Z,1.25
2022-10-16T04:40:00.264Z,1.55
2022-10-16T04:42:27.064Z,1.35
2022-10-16T04:44:54.174Z,1.60
2022-10-16T04:47:20.959Z,1.40
2022-10-16T04:49:47.822Z,1.70
2022-10-16T04:52:14.621Z,1.85
2022-10-16T04:54:41.521Z,1.63
2022-10-16T04:57:08.409Z,1.67
2022-10-16T04:59:35.263Z,1.77
2022-10-16T05:02:02.097Z,1.40
2022-10-16T05:04:28.866Z,1.70
2022-10-16T05:06:55.812Z,1.75
2022-10-16T05:09:22.795Z,1.42
2022-10-16T05:11:49.666Z,2.00
2022-10-16T05:14:16.622Z,1.55
2022-10-16T05:16:43.468Z,1.38
2022-10-16T05:21:57.258Z,1.90
2022-10-16T05:24:24.155Z,1.80
2022-10-16T05:26:51.668Z,1.58
2022-10-16T05:29:18.565Z,1.42
2022-10-16T05:31:45.444Z,1.58
2022-10-16T05:34:12.378Z,1.20
2022-10-16T05:36:39.172Z,1.17
2022-10-16T05:39:05.962Z,1.27
2022-10-16T05:41:33.171Z,1.40
2022-10-16T05:43:59.977Z,1.80
2022-10-16T05:46:26.821Z,1.38
2022-10-16T05:48:54.366Z,1.50
2022-10-16T05:51:21.266Z,1.50
2022-10-16T05:53:48.300Z,1.48
2022-10-16T05:56:15.325Z,1.13
2022-10-16T05:58:42.944Z,1.48
2022-10-16T06:01:20.171Z,1.45
2022-10-16T06:03:47.367Z,1.63
2022-10-16T06:06:16.608Z,1.40
2022-10-16T06:08:44.502Z,1.58
2022-10-16T06:11:13.273Z,1.50
2022-10-16T06:13:42.740Z,2.03
2022-10-16T06:16:10.924Z,1.50
2022-10-16T06:18:37.770Z,1.50
2022-10-16T06:21:12.714Z,1.35
2022-10-16T06:23:39.589Z,1.55
2022-10-16T06:26:11.414Z,1.50
2022-10-16T06:28:38.649Z,1.50
2022-10-16T06:31:08.310Z,1.63
2022-10-16T06:33:36.335Z,1.83
2022-10-16T06:36:04.059Z,1.48
2022-10-16T06:38:31.003Z,1.40
2022-10-16T06:40:57.930Z,1.13
2022-10-16T06:43:24.830Z,1.40
2022-10-16T06:45:55.556Z,2.30
2022-10-16T06:48:23.330Z,1.63
2022-10-16T06:50:56.790Z,1.70
2022-10-16T06:53:23.703Z,1.20
2022-10-16T06:55:50.521Z,1.00
2022-10-16T06:58:17.296Z,1.38
2022-10-16T07:00:44.160Z,1.65
2022-10-16T07:03:10.998Z,2.10
2022-10-16T07:05:44.239Z,1.90
2022-10-16T07:08:11.072Z,1.63
2022-10-16T07:10:38.035Z,1.20
2022-10-16T07:13:04.864Z,1.92
2022-10-16T07:15:31.733Z,1.38
2022-10-16T07:17:58.532Z,1.40
2022-10-16T07:20:25.389Z,1.60
2022-10-16T07:22:52.646Z,1.30
2022-10-16T07:25:19.635Z,1.15
2022-10-16T07:27:46.505Z,1.23
2022-10-16T07:30:13.363Z,1.35
2022-10-16T07:32:40.266Z,1.00
2022-10-16T07:35:07.688Z,1.25
2022-10-16T07:37:34.498Z,1.20
2022-10-16T07:40:01.375Z,1.10
2022-10-16T07:42:28.659Z,1.10
2022-10-16T07:44:55.485Z,1.25
2022-10-16T07:47:22.481Z,0.73
2022-10-16T07:49:49.606Z,1.33
2022-10-16T07:52:16.599Z,1.00
2022-10-16T07:54:43.496Z,1.10
2022-10-16T07:57:10.351Z,1.00
2022-10-16T07:59:37.192Z,0.73
2022-10-16T08:02:04.071Z,0.90
2022-10-16T08:04:30.904Z,1.30
2022-10-16T08:06:57.811Z,0.85
2022-10-16T08:09:24.809Z,0.85
2022-10-16T08:11:52.827Z,1.25
2022-10-16T08:14:19.676Z,1.08
2022-10-16T08:16:46.542Z,0.95
2022-10-16T08:19:13.402Z,0.98
2022-10-16T08:21:40.342Z,1.25
2022-10-16T08:24:07.180Z,1.33
2022-10-16T08:26:34.004Z,1.08
2022-10-16T08:29:00.911Z,1.13
2022-10-16T08:31:28.450Z,1.30
2022-10-16T08:33:55.352Z,1.25
2022-10-16T08:36:22.647Z,1.58
2022-10-16T08:38:50.597Z,1.30
2022-10-16T08:41:22.776Z,1.20
2022-10-16T08:44:01.923Z,1.40
2022-10-16T08:46:34.690Z,1.30
2022-10-16T08:49:01.831Z,1.67
2022-10-16T08:51:32.150Z,1.70
2022-10-16T08:54:04.568Z,1.60
2022-10-16T08:56:31.638Z,1.88
2022-10-16T08:59:02.121Z,1.50
2022-10-16T09:01:43.123Z,1.90
2022-10-16T09:04:33.592Z,1.70
2022-10-16T09:07:21.235Z,1.73
2022-10-16T09:10:09.358Z,1.60
2022-10-16T09:12:59.215Z,1.10
2022-10-16T09:15:57.347Z,0.93
2022-10-16T09:18:38.886Z,1.20
2022-10-16T09:21:31.750Z,0.85
2022-10-16T09:24:00.750Z,0.93
2022-10-16T09:26:27.586Z,1.20
2022-10-16T09:28:54.635Z,1.25
2022-10-16T09:31:23.446Z,0.90
2022-10-16T09:34:01.654Z,1.23
2022-10-16T09:36:29.522Z,1.20
2022-10-16T09:39:08.795Z,0.98
2022-10-16T09:41:44.687Z,0.75
2022-10-16T09:44:20.865Z,0.85
2022-10-16T09:46:47.702Z,0.82
2022-10-16T09:49:28.010Z,0.70
2022-10-16T09:52:15.821Z,1.05
2022-10-16T09:54:59.676Z,1.45
2022-10-16T09:57:27.867Z,0.82
2022-10-16T09:59:59.227Z,0.70
2022-10-16T10:02:36.059Z,0.80
2022-10-16T10:05:03.258Z,0.60
2022-10-16T10:07:35.465Z,0.73
2022-10-16T10:10:04.863Z,1.13
2022-10-16T10:12:35.695Z,0.90
2022-10-16T10:15:12.019Z,0.73
2022-10-16T10:17:58.699Z,0.75
2022-10-16T10:20:35.465Z,0.90
2022-10-16T10:23:17.159Z,0.60
2022-10-16T10:26:07.014Z,0.57
2022-10-16T10:28:44.319Z,0.70
2022-10-16T10:31:26.377Z,0.77
2022-10-16T10:34:21.201Z,0.77
2022-10-16T10:36:59.611Z,1.17
2022-10-16T10:39:26.408Z,1.20
2022-10-16T10:42:14.798Z,1.10
2022-10-16T10:44:47.808Z,0.90
2022-10-16T10:49:56.700Z,1.25
2022-10-16T10:52:48.975Z,1.05
2022-10-16T10:55:57.275Z,0.80
2022-10-16T10:58:29.921Z,0.80
2022-10-16T11:01:14.570Z,0.45
2022-10-16T11:04:16.537Z,0.57
2022-10-16T11:06:59.916Z,1.20
2022-10-16T11:09:32.047Z,0.93
2022-10-16T11:12:09.488Z,0.70
2022-10-16T11:14:37.907Z,0.50
2022-10-16T11:17:23.243Z,0.57
2022-10-16T11:19:59.098Z,0.55
2022-10-16T11:22:51.686Z,0.60
2022-10-16T11:25:36.505Z,0.60
2022-10-16T11:28:13.281Z,0.80
2022-10-16T11:30:45.100Z,0.63
2022-10-16T11:33:41.088Z,0.80
2022-10-16T11:36:14.297Z,0.70
2022-10-16T11:39:01.649Z,0.60
2022-10-16T11:41:38.981Z,0.60
2022-10-16T11:44:08.774Z,0.52
2022-10-16T11:46:52.550Z,0.90
2022-10-16T11:49:27.786Z,0.80
2022-10-16T11:54:53.131Z,0.77
2022-10-16T11:57:27.028Z,0.60
2022-10-16T12:00:21.289Z,0.77
2022-10-16T12:02:56.637Z,0.90
2022-10-16T12:05:30.927Z,0.40
2022-10-16T12:08:08.482Z,0.70
2022-10-16T12:13:25.744Z,0.68
2022-10-16T12:15:59.080Z,0.43
2022-10-16T12:18:26.616Z,0.60
2022-10-16T12:21:05.494Z,0.93
2022-10-16T12:23:53.392Z,0.50
2022-10-16T12:26:32.591Z,0.70
2022-10-16T12:29:12.717Z,0.82
2022-10-16T12:31:54.530Z,0.55
2022-10-16T12:34:43.424Z,0.70
2022-10-16T12:37:21.272Z,0.63
2022-10-16T12:39:49.167Z,0.70
2022-10-16T12:42:45.148Z,0.40
2022-10-16T12:45:30.524Z,0.90
2022-10-16T12:47:57.977Z,0.60
2022-10-16T12:50:34.789Z,0.57
2022-10-16T12:53:03.439Z,0.65
2022-10-16T12:55:41.200Z,0.35
2022-10-16T12:58:21.836Z,0.50
2022-10-16T13:00:58.452Z,0.65
2022-10-16T13:03:39.033Z,0.52
2022-10-16T13:06:35.454Z,1.08
2022-10-16T13:09:02.236Z,0.40
2022-10-16T13:11:31.928Z,0.50
2022-10-16T13:14:35.880Z,0.60
2022-10-16T13:17:37.338Z,0.47
2022-10-16T13:20:25.419Z,0.70
2022-10-16T13:22:57.482Z,0.77
2022-10-16T13:25:48.365Z,0.40
2022-10-16T13:28:15.418Z,0.60
2022-10-16T13:30:45.089Z,0.30
2022-10-16T13:33:18.721Z,0.50
2022-10-16T13:35:53.504Z,0.60
2022-10-16T13:38:23.309Z,0.63
2022-10-16T13:40:56.246Z,0.50
2022-10-16T13:46:08.546Z,0.50
2022-10-16T13:48:35.971Z,0.85
2022-10-16T13:51:12.087Z,0.40
2022-10-16T13:53:38.999Z,0.70
2022-10-16T13:56:17.662Z,0.52
2022-10-16T13:58:45.764Z,0.52
2022-10-16T14:01:28.555Z,2.15
2022-10-16T14:04:04.382Z,0.80
2022-10-16T14:06:31.461Z,0.70
2022-10-16T14:09:13.649Z,0.47
2022-10-16T14:11:47.584Z,0.50
2022-10-16T14:14:14.840Z,0.73
2022-10-16T14:16:43.457Z,0.70
2022-10-16T14:19:28.356Z,0.57
2022-10-16T14:21:55.612Z,0.55
2022-10-16T14:24:31.295Z,0.60
2022-10-16T14:26:58.435Z,0.43
2022-10-16T14:29:27.337Z,0.32
2022-10-16T14:32:04.164Z,0.40
2022-10-16T14:34:40.969Z,0.50
2022-10-16T14:37:16.163Z,0.70
2022-10-16T14:39:43.163Z,1.23
2022-10-16T14:42:18.788Z,0.70
2022-10-16T14:44:45.833Z,0.70
2022-10-16T14:47:23.266Z,0.60
2022-10-16T14:49:50.259Z,0.47
2022-10-16T14:52:17.469Z,0.73
2022-10-16T14:54:44.522Z,0.63
2022-10-16T14:57:25.501Z,0.80
2022-10-16T14:59:52.729Z,0.82
2022-10-16T15:02:29.722Z,0.50
2022-10-16T15:04:57.252Z,0.73
2022-10-16T15:07:24.659Z,0.60
2022-10-16T15:09:51.864Z,0.73
2022-10-16T15:12:18.923Z,0.55
2022-10-16T15:14:45.696Z,0.57
2022-10-16T15:17:13.433Z,0.50
2022-10-16T15:19:41.397Z,0.30
2022-10-16T15:22:09.840Z,0.40
2022-10-16T15:24:36.631Z,0.52
2022-10-16T15:27:03.505Z,0.80
2022-10-16T15:29:30.298Z,0.50
2022-10-16T15:31:57.118Z,0.77
2022-10-16T15:34:23.912Z,0.50
2022-10-16T15:36:51.221Z,0.63
2022-10-16T15:39:22.646Z,1.65
2022-10-16T15:41:54.294Z,1.80
2022-10-16T15:44:24.148Z,2.03
2022-10-16T15:46:51.392Z,2.05
2022-10-16T15:49:18.218Z,1.90
2022-10-16T15:51:45.523Z,1.08
2022-10-16T15:54:12.370Z,1.35
2022-10-16T15:56:39.222Z,0.60
2022-10-16T15:59:07.677Z,0.88
2022-10-16T16:01:37.703Z,0.60
2022-10-16T16:04:10.936Z,0.80
2022-10-16T16:06:45.785Z,0.70
2022-10-16T16:09:14.621Z,0.88
2022-10-16T16:11:41.738Z,0.93
2022-10-16T16:14:09.111Z,0.90
2022-10-16T16:16:38.507Z,1.77
2022-10-16T16:19:11.651Z,1.60
2022-10-16T16:21:39.369Z,2.40
2022-10-16T16:24:09.611Z,1.88
2022-10-16T16:26:40.921Z,2.40
2022-10-16T16:29:08.251Z,1.88
2022-10-16T16:31:35.827Z,1.95
2022-10-16T16:34:02.747Z,1.90
2022-10-16T16:36:29.599Z,1.80
2022-10-16T16:38:56.409Z,2.65
2022-10-16T16:41:28.236Z,5.05
2022-10-16T16:43:55.863Z,7.28
2022-10-16T16:46:23.506Z,1.48
2022-10-16T16:48:56.481Z,2.03
2022-10-16T16:53:52.086Z,3.00
2022-10-16T16:56:20.920Z,3.20
2022-10-16T16:58:49.202Z,3.60
2022-10-16T17:01:19.799Z,9.38
2022-10-16T17:03:50.787Z,5.63
2022-10-16T17:06:20.478Z,4.40
2022-10-16T17:08:48.901Z,3.72
2022-10-16T17:11:20.330Z,3.88
2022-10-16T17:13:49.941Z,2.20
2022-10-16T17:16:19.629Z,2.58
2022-10-16T17:18:46.444Z,3.53
2022-10-16T17:21:13.683Z,3.50
2022-10-16T17:23:40.676Z,4.35
2022-10-16T17:26:13.039Z,4.40
2022-10-16T17:28:40.752Z,4.25
2022-10-16T17:31:13.062Z,4.35
2022-10-16T17:33:40.583Z,4.05
2022-10-16T17:36:08.342Z,3.83
2022-10-16T17:38:35.689Z,3.47
2022-10-16T17:41:22.622Z,3.92
2022-10-16T17:43:50.387Z,2.90
2022-10-16T17:46:19.209Z,11.52
2022-10-16T17:48:48.518Z,4.30
2022-10-16T17:51:18.606Z,3.53
2022-10-16T17:53:59.159Z,7.88
2022-10-16T17:56:27.255Z,3.95
2022-10-16T17:58:56.140Z,4.18
2022-10-16T18:01:29.777Z,4.43
2022-10-16T18:04:01.603Z,2.83
2022-10-16T18:06:29.308Z,4.68
2022-10-16T18:08:57.479Z,2.70
2022-10-16T18:11:24.936Z,2.53
2022-10-16T18:13:56.996Z,2.65
2022-10-16T18:16:24.993Z,2.83
2022-10-16T18:18:52.176Z,5.32
2022-10-16T18:21:20.325Z,3.63
2022-10-16T18:23:51.045Z,2.63
2022-10-16T18:26:20.443Z,2.88
2022-10-16T18:28:48.038Z,2.13
2022-10-16T18:31:17.268Z,2.63
2022-10-16T18:33:48.628Z,2.20
2022-10-16T18:36:17.063Z,2.55
2022-10-16T18:38:43.936Z,2.83
2022-10-16T18:41:11.263Z,4.45
2022-10-16T18:43:39.408Z,3.47
2022-10-16T18:46:17.886Z,2.28
2022-10-16T18:48:45.150Z,2.65
2022-10-16T18:51:16.674Z,9.75
2022-10-16T18:53:45.616Z,3.05
2022-10-16T18:56:15.086Z,2.88
2022-10-16T18:58:43.634Z,4.15
2022-10-16T19:01:16.162Z,2.75
2022-10-16T19:03:43.801Z,2.50
2022-10-16T19:06:13.714Z,2.67
2022-10-16T19:08:40.994Z,2.78
2022-10-16T19:11:10.866Z,3.17
2022-10-16T19:13:38.148Z,2.28
2022-10-16T19:16:19.766Z,3.70
2022-10-16T19:18:52.215Z,2.08
2022-10-16T19:21:19.642Z,2.30
2022-10-16T19:23:46.595Z,1.90
2022-10-16T19:26:15.785Z,1.90
2022-10-16T19:28:42.970Z,2.45
2022-10-16T19:31:12.380Z,1.77
2022-10-16T19:33:40.081Z,1.90
2022-10-16T19:36:11.575Z,2.22
2022-10-16T19:38:39.508Z,2.47
2022-10-16T19:41:07.459Z,1.95
2022-10-16T19:43:34.294Z,2.35
2022-10-16T19:46:06.014Z,1.90
2022-10-16T19:48:33.063Z,1.70
2022-10-16T19:51:00.110Z,2.08
2022-10-16T19:53:28.588Z,1.90
2022-10-16T19:55:56.245Z,1.77
2022-10-16T19:58:23.700Z,1.40
2022-10-16T20:00:51.209Z,1.52
2022-10-16T20:03:18.527Z,2.15
2022-10-16T20:05:55.365Z,2.10
2022-10-16T20:08:22.801Z,1.40
2022-10-16T20:10:51.390Z,1.42
2022-10-16T20:13:19.614Z,1.90
2022-10-16T20:15:46.643Z,1.30
2022-10-16T20:18:14.237Z,1.60
2022-10-16T20:20:43.118Z,1.67
2022-10-16T20:23:10.407Z,1.83
2022-10-16T20:25:42.039Z,1.67
2022-10-16T20:28:11.673Z,1.55
2022-10-16T20:30:41.237Z,1.60
2022-10-16T20:33:08.563Z,1.80
2022-10-16T20:35:36.934Z,1.30
2022-10-16T20:38:04.208Z,1.88
2022-10-16T20:40:31.303Z,1.63
2022-10-16T20:42:58.156Z,2.42
2022-10-16T20:45:24.977Z,1.80
2022-10-16T20:47:51.782Z,1.65
2022-10-16T20:50:18.651Z,1.83
2022-10-16T20:52:45.686Z,2.38
2022-10-16T20:55:12.599Z,1.80
2022-10-16T20:57:39.463Z,1.52
2022-10-16T21:00:06.915Z,2.03
2022-10-16T21:02:33.853Z,1.90
2022-10-16T21:05:00.789Z,2.30
2022-10-16T21:07:28.551Z,2.45
2022-10-16T21:09:59.380Z,2.13
2022-10-16T21:12:26.861Z,2.45
2022-10-16T21:15:13.399Z,4.13
2022-10-16T21:17:40.913Z,4.03
2022-10-16T21:20:08.169Z,4.45
2022-10-16T21:22:35.007Z,4.22
2022-10-16T21:25:02.097Z,3.88
2022-10-16T21:27:28.930Z,4.05
2022-10-16T21:29:55.833Z,4.10
2022-10-16T21:32:22.646Z,3.28
2022-10-16T21:34:49.504Z,3.70
2022-10-16T21:37:16.343Z,2.40
2022-10-16T21:39:43.223Z,3.38
2022-10-16T21:42:10.057Z,2.95
2022-10-16T21:44:38.290Z,3.60
2022-10-16T21:47:05.110Z,3.13
2022-10-16T21:49:31.943Z,3.13
2022-10-16T21:51:58.756Z,3.22
2022-10-16T21:54:25.599Z,3.10
2022-10-16T21:56:53.065Z,2.60
2022-10-16T21:59:20.516Z,2.78
2022-10-16T22:01:47.550Z,2.72
2022-10-16T22:04:16.586Z,3.05
2022-10-16T22:06:43.881Z,2.72
2022-10-16T22:09:14.340Z,3.58
2022-10-16T22:11:43.217Z,3.42
2022-10-16T22:14:16.813Z,3.70
2022-10-16T22:16:44.636Z,2.97
2022-10-16T22:19:13.512Z,2.97
2022-10-16T22:21:42.382Z,3.45
2022-10-16T22:24:09.727Z,3.53
2022-10-16T22:26:36.925Z,3.35
2022-10-16T22:29:04.138Z,3.78
2022-10-16T22:31:31.159Z,3.30
2022-10-16T22:33:59.668Z,2.55
2022-10-16T22:36:27.609Z,2.97
2022-10-16T22:38:54.788Z,3.35
2022-10-16T22:41:22.135Z,3.30
2022-10-16T22:43:49.808Z,3.90
2022-10-16T22:46:22.322Z,3.30
2022-10-16T22:48:49.370Z,3.90
2022-10-16T22:51:17.283Z,3.72
2022-10-16T22:53:45.562Z,3.88
2022-10-16T22:56:13.054Z,3.83
2022-10-16T22:58:40.149Z,3.35
2022-10-16T23:01:17.307Z,3.63
2022-10-16T23:03:44.206Z,3.13
2022-10-16T23:06:11.151Z,3.95
2022-10-16T23:08:37.975Z,3.63
2022-10-16T23:11:07.583Z,3.63
2022-10-16T23:13:37.309Z,4.00
2022-10-16T23:16:05.605Z,4.13
2022-10-16T23:18:34.612Z,3.60
2022-10-16T23:21:06.094Z,4.03
2022-10-16T23:23:35.087Z,4.10
2022-10-16T23:26:01.979Z,4.20
2022-10-16T23:28:28.861Z,4.05
2022-10-16T23:30:55.832Z,3.95
2022-10-16T23:33:22.651Z,4.10
2022-10-16T23:35:49.533Z,4.30
2022-10-16T23:38:16.335Z,4.00
2022-10-16T23:40:43.216Z,3.72
2022-10-16T23:43:10.054Z,5.00
2022-10-16T23:45:36.905Z,3.88
2022-10-16T23:48:03.804Z,4.40
2022-10-16T23:50:30.809Z,4.38
2022-10-16T23:52:57.749Z,4.32
2022-10-16T23:55:24.602Z,3.97
2022-10-16T23:57:51.537Z,4.28
